Friday, January 18, 2019, 3:04 AM EST
Back to Local

KWST, Westerly State Airport

Location: Westerly, RI, United States Lat: 41.35
Local Time: 3:04 AM EST ( 8:04 GMT) Lon: -71.8
Time Zone: US/Eastern Elev: 82 ft

Show me the last for .
Show Decoded

2019-01-18 02:53 METAR KWST 180753Z AUTO 04007KT 10SM FEW060 OVC080 M01/M07 A3021 RMK AO2 SLP231
                 T10111072 =
2019-01-18 01:53 METAR KWST 180653Z AUTO 02006KT 10SM BKN035 OVC055 M01/M08 A3024 RMK AO2 SLP241
                 T10111078 =
2019-01-18 00:53 METAR KWST 180553Z AUTO 00000KT 10SM BKN034 BKN060 OVC100 01/M06 A3025 RMK AO2
                 SLP243 T00061061 10017 21022 58024 =
2019-01-17 23:53 METAR KWST 180453Z AUTO 11006KT 10SM OVC110 00/M07 A3027 RMK AO2 SLP250
                 T00001072 400171044 =
2019-01-17 22:53 METAR KWST 180353Z AUTO 13006KT 10SM FEW033 01/M07 A3030 RMK AO2 SLP262
                 T00061072 =
2019-01-17 21:53 METAR KWST 180253Z AUTO 36003KT 10SM SCT034 M02/M09 A3032 RMK AO2 SLP267
                 T10221094 55008 =
2019-01-17 20:53 METAR KWST 180153Z AUTO 00000KT 10SM FEW110 M02/M09 A3031 RMK AO2 SLP265
                 T10171094 =
2019-01-17 19:53 METAR KWST 180053Z AUTO 10003KT 10SM FEW110 00/M11 A3033 RMK AO2 SLP271
                 T00001106 =
2019-01-17 18:53 METAR KWST 172353Z AUTO 14005KT 10SM CLR M01/M12 A3034 RMK AO2 SLP275 T10061117
                 10017 21011 53000 =
2019-01-17 17:53 METAR KWST 172253Z AUTO 14003KT 10SM FEW120 M01/M13 A3033 RMK AO2 SLP272
                 T10061128 =
2019-01-17 16:53 METAR KWST 172153Z AUTO 13003KT 10SM CLR M01/M15 A3033 RMK AO2 SLP271 T10111150
                 =
2019-01-17 15:53 METAR KWST 172053Z AUTO 15005KT 10SM CLR 00/M14 A3034 RMK AO2 SLP275 T00001144
                 55007 =
2019-01-17 14:53 METAR KWST 171953Z AUTO 14006KT 10SM CLR 00/M16 A3034 RMK AO2 SLP275 T00001156 =
2019-01-17 13:53 METAR KWST 171853Z AUTO 27003KT 10SM CLR 02/M22 A3035 RMK AO2 SLP277 T00171222 =
2019-01-17 12:53 METAR KWST 171753Z AUTO 00000KT 10SM CLR 01/M22 A3036 RMK AO2 SLP282 T00061222
                 10006 21044 58018 =
2019-01-17 11:53 METAR KWST 171653Z AUTO 01006KT 10SM CLR M01/M21 A3039 RMK AO2 SLP290 T10061211
                 =
2019-01-17 10:53 METAR KWST 171553Z AUTO 35008KT 10SM CLR M02/M21 A3041 RMK AO2 SLP298 T10171211
                 =
2019-01-17 09:53 METAR KWST 171453Z AUTO 34009KT 10SM CLR M03/M20 A3042 RMK AO2 SLP300 T10281200
                 53021 =
2019-01-17 08:53 METAR KWST 171353Z AUTO 33006KT 10SM CLR M03/M18 A3040 RMK AO2 SLP293 T10331178
                 =
2019-01-17 07:53 METAR KWST 171253Z AUTO 34006KT 10SM CLR M04/M16 A3037 RMK AO2 SLP286 T10391156
                 =
2019-01-17 06:53 METAR KWST 171153Z AUTO 31003KT 10SM CLR M04/M15 A3035 RMK AO2 SLP279 T10391150
                 10000 21039 53024 =
2019-01-17 05:53 METAR KWST 171053Z AUTO 33008KT 10SM CLR M03/M14 A3032 RMK AO2 SLP269 T10331144
                 =
2019-01-17 04:53 METAR KWST 170953Z AUTO 33007KT 10SM CLR M03/M12 A3029 RMK AO2 SLP258 T10281117
                 =
2019-01-17 03:53 METAR KWST 170853Z AUTO VRB04KT 10SM CLR M02/M11 A3028 RMK AO2 SLP255 T10221106
                 51027 =

Support USWX by starting your Amazon purchase here.